Terminal Aerodrome Forecast
Issued by NWS

Home | Current Version | Previous Version | Graphics & Text | Print | Product List | Glossary On
Versions: 1 2 3 4 5 6 7 8 9 10 11 12 13 14 15 16 17
000
FTUS45 KGGW 270520
TAFSDY
TAF
KSDY 270520Z 2706/2806 27005KT P6SM FEW100
     FM271500 29009KT P6SM FEW090
     FM271800 30014G24KT P6SM BKN090
     FM272300 31012G20KT P6SM VCSH BKN080
     FM280200 30007KT P6SM SCT090=

USA.gov is the U.S. government's official web portal to all federal, state and local government web resources and services.